Welcome to Northern Hawkes Bay. New Zealand.
PWS Header
      nz Flag



Hit Counter


W3C Valid W3C Valid logo


    Wairoa

Select any of the Stations below to visit their websites.










Historic Data from Weather Underground
Select the location of interest below. Wairoa is the default. Please have patience, this Data is slow to load in.
Northern Hawkes Bay Historical Data
Daily Summary for October 25, 2017 Units:  Metric    English   Both
« Previous Day
Next Day »
Daily Weekly Monthly Yearly Custom
  High: Low: Average:
Temperature: 23.3 °C 10.5 °C 15.8 °C
Dew Point: 11.9 °C 7.6 °C 9.7 °C
Humidity: 99% 38% 70%
Wind Speed: 12.2km/h 0.0km/h 3.4km/h
Wind Gust: 20.9km/h - -
Wind- - WSW
Pressure: 1009.4 hPa 1005.0 hPa -
Precipitation: 0.0 mm    
Historical Graphs
 
 
Tabular Data for October 25, 2017
Time Temperature Dew Point Pressure Wind Wind Speed Wind Gust Humidity Rainfall Rate (Hourly) solar
00:15 11.2 °C 10.9 °C 1009.0 hPa NW 1.1 km/h 3.5 km/h 98% 0.0 mm 0 W/m2
00:20 11.1 °C 10.8 °C 1009.0 hPa NW 1.1 km/h 5.0 km/h 98% 0.0 mm 0 W/m2
00:40 10.9 °C 10.8 °C 1009.4 hPa NW 1.1 km/h 3.5 km/h 99% 0.0 mm 0 W/m2
00:45 10.9 °C 10.8 °C 1009.4 hPa NNW 1.1 km/h 3.5 km/h 99% 0.0 mm 0 W/m2
00:50 10.9 °C 10.8 °C 1009.4 hPa NNW 1.1 km/h 3.5 km/h 99% 0.0 mm 0 W/m2
00:55 11.1 °C 10.8 °C 1009.0 hPa Calm   3.5 km/h 98% 0.0 mm 0 W/m2
01:00 11.1 °C 10.8 °C 1009.4 hPa Calm   3.5 km/h 98% 0.0 mm 0 W/m2
01:05 11.1 °C 10.8 °C 1009.4 hPa North 1.1 km/h 3.5 km/h 98% 0.0 mm 0 W/m2
01:10 11.1 °C 10.8 °C 1009.4 hPa NNW 2.6 km/h 6.1 km/h 98% 0.0 mm 0 W/m2
01:15 11.1 °C 10.8 °C 1009.4 hPa NW 3.5 km/h 6.1 km/h 98% 0.0 mm 0 W/m2
01:20 11.1 °C 10.8 °C 1009.4 hPa NW 1.1 km/h 6.1 km/h 98% 0.0 mm 0 W/m2
01:25 11.1 °C 10.8 °C 1009.4 hPa NW 1.1 km/h 6.1 km/h 98% 0.0 mm 0 W/m2
01:30 10.9 °C 10.8 °C 1009.4 hPa Calm   5.0 km/h 99% 0.0 mm 0 W/m2
01:35 10.9 °C 10.8 °C 1009.4 hPa Calm   3.5 km/h 99% 0.0 mm 0 W/m2
01:40 10.9 °C 10.8 °C 1009.0 hPa NW 2.6 km/h 5.0 km/h 99% 0.0 mm 0 W/m2
01:45 10.9 °C 10.8 °C 1009.4 hPa NW 1.1 km/h 5.0 km/h 99% 0.0 mm 0 W/m2
01:50 10.9 °C 10.8 °C 1009.0 hPa NW 1.1 km/h 5.0 km/h 99% 0.0 mm 0 W/m2
01:55 10.9 °C 10.8 °C 1009.4 hPa NW 3.5 km/h 6.1 km/h 99% 0.0 mm 0 W/m2
02:00 10.9 °C 10.8 °C 1009.0 hPa NW 5.0 km/h 8.7 km/h 99% 0.0 mm 0 W/m2
02:05 10.9 °C 10.8 °C 1009.4 hPa NW 3.5 km/h 8.7 km/h 99% 0.0 mm 0 W/m2
02:10 10.9 °C 10.8 °C 1009.0 hPa NW 2.6 km/h 7.2 km/h 99% 0.0 mm 0 W/m2
02:15 10.9 °C 10.8 °C 1009.0 hPa NW 3.5 km/h 7.2 km/h 99% 0.0 mm 0 W/m2
02:20 11.1 °C 10.8 °C 1009.0 hPa NW 5.0 km/h 8.7 km/h 98% 0.0 mm 0 W/m2
02:25 11.1 °C 10.8 °C 1009.0 hPa NNW 3.5 km/h 8.7 km/h 98% 0.0 mm 0 W/m2
02:30 11.1 °C 10.8 °C 1009.0 hPa NNW 5.0 km/h 8.7 km/h 98% 0.0 mm 0 W/m2
02:35 11.1 °C 10.8 °C 1009.0 hPa NNW 5.0 km/h 8.7 km/h 98% 0.0 mm 0 W/m2
02:40 11.1 °C 10.8 °C 1009.0 hPa NNW 1.1 km/h 8.7 km/h 98% 0.0 mm 0 W/m2
02:45 11.1 °C 10.8 °C 1009.0 hPa NNW 1.1 km/h 7.2 km/h 98% 0.0 mm 0 W/m2
02:51 11.1 °C 10.8 °C 1009.0 hPa NNW 1.1 km/h 5.0 km/h 98% 0.0 mm 0 W/m2
02:56 11.1 °C 10.8 °C 1009.0 hPa North 1.1 km/h 5.0 km/h 98% 0.0 mm 0 W/m2
03:01 11.1 °C 10.8 °C 1009.0 hPa North 1.1 km/h 6.1 km/h 98% 0.0 mm 0 W/m2
03:07 11.1 °C 10.8 °C 1009.0 hPa NNW 3.5 km/h 6.1 km/h 98% 0.0 mm 0 W/m2
03:12 11.2 °C 10.9 °C 1009.0 hPa NNW 2.6 km/h 6.1 km/h 98% 0.0 mm 0 W/m2
03:17 11.3 °C 11.0 °C 1008.7 hPa NNW 1.1 km/h 6.1 km/h 98% 0.0 mm 0 W/m2
03:22 11.3 °C 11.0 °C 1008.7 hPa North 1.1 km/h 6.1 km/h 98% 0.0 mm 0 W/m2
03:27 11.3 °C 11.0 °C 1008.7 hPa NNW 2.6 km/h 6.1 km/h 98% 0.0 mm 0 W/m2
03:32 11.4 °C 11.1 °C 1008.7 hPa NNW 5.0 km/h 7.2 km/h 98% 0.0 mm 0 W/m2
03:37 11.5 °C 11.2 °C 1008.7 hPa NNW 3.5 km/h 8.7 km/h 98% 0.0 mm 0 W/m2
03:42 11.5 °C 11.2 °C 1008.7 hPa NNW 3.5 km/h 8.7 km/h 98% 0.0 mm 0 W/m2
03:47 11.6 °C 11.3 °C 1008.7 hPa NNW 5.0 km/h 8.7 km/h 98% 0.0 mm 0 W/m2
03:52 11.6 °C 11.3 °C 1008.7 hPa North 5.0 km/h 9.7 km/h 98% 0.0 mm 0 W/m2
03:57 11.7 °C 11.2 °C 1008.4 hPa North 6.1 km/h 9.7 km/h 97% 0.0 mm 0 W/m2
04:02 11.7 °C 11.1 °C 1008.4 hPa North 5.0 km/h 11.1 km/h 96% 0.0 mm 0 W/m2
04:07 11.8 °C 11.1 °C 1008.7 hPa North 3.5 km/h 11.1 km/h 95% 0.0 mm 0 W/m2
04:12 11.8 °C 10.9 °C 1008.4 hPa NNE 2.6 km/h 9.7 km/h 94% 0.0 mm 0 W/m2
04:17 11.7 °C 10.8 °C 1008.4 hPa North 3.5 km/h 8.7 km/h 94% 0.0 mm 0 W/m2
04:22 11.7 °C 10.8 °C 1008.7 hPa North 5.0 km/h 8.7 km/h 94% 0.0 mm 0 W/m2
04:27 11.7 °C 10.6 °C 1008.4 hPa North 3.5 km/h 8.7 km/h 93% 0.0 mm 0 W/m2
04:32 11.7 °C 10.6 °C 1008.4 hPa North 2.6 km/h 8.7 km/h 93% 0.0 mm 0 W/m2
04:37 11.7 °C 10.6 °C 1008.4 hPa North 5.0 km/h 9.7 km/h 93% 0.0 mm 0 W/m2
04:42 11.7 °C 10.6 °C 1008.4 hPa North 6.1 km/h 9.7 km/h 93% 0.0 mm 0 W/m2
04:47 11.7 °C 10.6 °C 1008.4 hPa North 3.5 km/h 9.7 km/h 93% 0.0 mm 0 W/m2
04:52 11.6 °C 10.5 °C 1008.4 hPa North 3.5 km/h 9.7 km/h 93% 0.0 mm 0 W/m2
04:57 11.6 °C 10.5 °C 1008.4 hPa NNW 3.5 km/h 9.7 km/h 93% 0.0 mm 0 W/m2
05:02 11.6 °C 10.3 °C 1008.4 hPa North 3.5 km/h 9.7 km/h 92% 0.0 mm 0 W/m2
05:07 11.5 °C 10.2 °C 1008.4 hPa North 2.6 km/h 8.7 km/h 92% 0.0 mm 0 W/m2
05:12 11.4 °C 10.0 °C 1008.4 hPa North 3.5 km/h 8.7 km/h 91% 0.0 mm 0 W/m2
05:17 11.3 °C 9.9 °C 1008.4 hPa North 5.0 km/h 8.7 km/h 91% 0.0 mm 0 W/m2
05:22 11.2 °C 9.8 °C 1008.4 hPa North 3.5 km/h 8.7 km/h 91% 0.0 mm 0 W/m2
05:27 11.1 °C 9.5 °C 1008.4 hPa North 3.5 km/h 8.7 km/h 90% 0.0 mm 0 W/m2
05:32 11.0 °C 9.4 °C 1008.4 hPa North 3.5 km/h 9.7 km/h 90% 0.0 mm 0 W/m2
05:37 10.9 °C 9.3 °C 1008.4 hPa North 2.6 km/h 9.7 km/h 90% 0.0 mm 0 W/m2
05:47 10.8 °C 9.1 °C 1008.4 hPa North 3.5 km/h 7.2 km/h 89% 0.0 mm 0 W/m2
05:52 10.8 °C 8.9 °C 1008.7 hPa North 1.1 km/h 7.2 km/h 88% 0.0 mm 0 W/m2
05:57 10.7 °C 8.9 °C 1008.7 hPa North 3.5 km/h 7.2 km/h 89% 0.0 mm 0 W/m2
06:02 10.6 °C 9.1 °C 1008.7 hPa NNW 2.6 km/h 7.2 km/h 90% 0.0 mm 0 W/m2
06:07 10.6 °C 9.1 °C 1008.4 hPa NNW 2.6 km/h 8.7 km/h 90% 0.0 mm 0 W/m2
06:12 10.6 °C 9.1 °C 1008.4 hPa North 3.5 km/h 8.7 km/h 90% 0.0 mm 0 W/m2
06:17 10.5 °C 8.9 °C 1008.4 hPa North 1.1 km/h 7.2 km/h 90% 0.0 mm 3 W/m2
06:22 10.5 °C 8.9 °C 1008.7 hPa North 3.5 km/h 7.2 km/h 90% 0.0 mm 6 W/m2
06:27 10.6 °C 8.9 °C 1008.7 hPa North 3.5 km/h 8.7 km/h 89% 0.0 mm 10 W/m2
06:32 10.6 °C 8.9 °C 1008.4 hPa North 3.5 km/h 8.7 km/h 89% 0.0 mm 16 W/m2
06:37 10.8 °C 9.1 °C 1008.7 hPa North 2.6 km/h 8.7 km/h 89% 0.0 mm 46 W/m2
06:42 11.1 °C 9.2 °C 1008.7 hPa NNW 2.6 km/h 7.2 km/h 88% 0.0 mm 27 W/m2
06:47 11.1 °C 9.0 °C 1008.7 hPa NNW 2.6 km/h 7.2 km/h 87% 0.0 mm 32 W/m2
06:52 11.0 °C 8.8 °C 1008.7 hPa NNW 1.1 km/h 7.2 km/h 86% 0.0 mm 48 W/m2
06:57 11.2 °C 9.3 °C 1008.7 hPa NNW 1.1 km/h 7.2 km/h 88% 0.0 mm 84 W/m2
07:02 11.6 °C 9.7 °C 1008.7 hPa Calm   5.0 km/h 88% 0.0 mm 92 W/m2
07:07 12.1 °C 9.8 °C 1008.7 hPa NNW 1.1 km/h 6.1 km/h 86% 0.0 mm 99 W/m2
07:12 12.4 °C 9.8 °C 1008.7 hPa NNW 2.6 km/h 7.2 km/h 84% 0.0 mm 105 W/m2
07:17 12.7 °C 9.7 °C 1008.7 hPa NNW 2.6 km/h 7.2 km/h 82% 0.0 mm 111 W/m2
07:22 13.0 °C 9.6 °C 1008.7 hPa NNW 2.6 km/h 7.2 km/h 80% 0.0 mm 117 W/m2
07:27 13.4 °C 9.8 °C 1008.7 hPa NNW 2.6 km/h 7.2 km/h 79% 0.0 mm 122 W/m2
07:32 13.5 °C 9.6 °C 1008.4 hPa NNW 5.0 km/h 8.7 km/h 77% 0.0 mm 129 W/m2
07:37 13.4 °C 9.4 °C 1008.7 hPa NNW 5.0 km/h 11.1 km/h 77% 0.0 mm 136 W/m2
07:42 13.5 °C 9.3 °C 1008.7 hPa NNW 5.0 km/h 14.8 km/h 76% 0.0 mm 143 W/m2
07:47 13.5 °C 9.2 °C 1008.7 hPa NNW 9.7 km/h 14.8 km/h 75% 0.0 mm 151 W/m2
07:52 13.5 °C 9.2 °C 1008.7 hPa NNW 2.6 km/h 14.8 km/h 75% 0.0 mm 160 W/m2
07:57 13.8 °C 9.4 °C 1008.7 hPa North 2.6 km/h 14.8 km/h 75% 0.0 mm 168 W/m2
08:02 14.0 °C 9.7 °C 1008.7 hPa North 6.1 km/h 13.4 km/h 75% 0.0 mm 178 W/m2
08:07 13.9 °C 9.7 °C 1009.0 hPa NNW 7.2 km/h 14.8 km/h 76% 0.0 mm 188 W/m2
08:12 14.2 °C 9.8 °C 1009.0 hPa NNW 7.2 km/h 14.8 km/h 75% 0.0 mm 197 W/m2
08:17 14.5 °C 9.9 °C 1009.4 hPa NNW 8.7 km/h 12.2 km/h 74% 0.0 mm 207 W/m2
08:22 14.7 °C 9.9 °C 1009.0 hPa North 9.7 km/h 13.4 km/h 73% 0.0 mm 219 W/m2
08:27 14.8 °C 9.4 °C 1009.0 hPa NNW 5.0 km/h 13.4 km/h 70% 0.0 mm 228 W/m2
08:32 15.0 °C 9.2 °C 1009.0 hPa North 6.1 km/h 13.4 km/h 68% 0.0 mm 240 W/m2
08:37 15.1 °C 8.8 °C 1009.4 hPa North 3.5 km/h 13.4 km/h 66% 0.0 mm 249 W/m2
08:42 15.3 °C 9.0 °C 1009.4 hPa North 5.0 km/h 13.4 km/h 66% 0.0 mm 260 W/m2
08:47 15.7 °C 9.4 °C 1009.4 hPa North 8.7 km/h 13.4 km/h 66% 0.0 mm 271 W/m2
08:52 15.7 °C 8.9 °C 1009.4 hPa North 5.0 km/h 14.8 km/h 64% 0.0 mm 282 W/m2
08:57 15.9 °C 9.1 °C 1009.4 hPa North 8.7 km/h 14.8 km/h 64% 0.0 mm 294 W/m2
09:02 16.2 °C 9.2 °C 1009.4 hPa North 5.0 km/h 13.4 km/h 63% 0.0 mm 306 W/m2
09:07 16.4 °C 9.3 °C 1009.4 hPa North 3.5 km/h 13.4 km/h 63% 0.0 mm 318 W/m2
09:12 16.5 °C 9.4 °C 1009.4 hPa North 5.0 km/h 11.1 km/h 63% 0.0 mm 330 W/m2
09:17 16.5 °C 9.4 °C 1009.0 hPa North 6.1 km/h 13.4 km/h 63% 0.0 mm 342 W/m2
09:22 16.8 °C 9.7 °C 1009.0 hPa North 5.0 km/h 13.4 km/h 63% 0.0 mm 356 W/m2
09:27 16.8 °C 9.5 °C 1009.0 hPa NNW 7.2 km/h 14.8 km/h 62% 0.0 mm 369 W/m2
09:32 16.9 °C 9.3 °C 1009.0 hPa NNW 5.0 km/h 14.8 km/h 61% 0.0 mm 384 W/m2
09:37 17.4 °C 9.3 °C 1009.4 hPa NNW 7.2 km/h 12.2 km/h 59% 0.0 mm 399 W/m2
09:42 17.6 °C 9.0 °C 1009.0 hPa NNW 7.2 km/h 12.2 km/h 57% 0.0 mm 412 W/m2
09:47 17.7 °C 8.6 °C 1009.4 hPa North 6.1 km/h 12.2 km/h 55% 0.0 mm 423 W/m2
09:52 17.7 °C 8.0 °C 1009.0 hPa North 7.2 km/h 12.2 km/h 53% 0.0 mm 437 W/m2
09:57 18.1 °C 8.7 °C 1009.0 hPa North 7.2 km/h 11.1 km/h 54% 0.0 mm 448 W/m2
10:02 18.1 °C 7.8 °C 1008.7 hPa NNW 3.5 km/h 11.1 km/h 51% 0.0 mm 467 W/m2
10:07 18.6 °C 8.3 °C 1008.7 hPa NW 7.2 km/h 13.4 km/h 51% 0.0 mm 462 W/m2
10:12 18.1 °C 8.4 °C 1008.7 hPa NW 6.1 km/h 13.4 km/h 53% 0.0 mm 490 W/m2
10:17 18.4 °C 8.7 °C 1008.7 hPa NW 2.6 km/h 13.4 km/h 53% 0.0 mm 504 W/m2
10:22 19.0 °C 8.9 °C 1008.7 hPa NNW 5.0 km/h 17.2 km/h 52% 0.0 mm 507 W/m2
10:27 19.1 °C 8.4 °C 1008.7 hPa Calm   17.2 km/h 50% 0.0 mm 526 W/m2
10:33 19.6 °C 8.3 °C 1009.0 hPa NNW 5.0 km/h 13.4 km/h 48% 0.0 mm 553 W/m2
10:38 19.9 °C 8.6 °C 1008.7 hPa WNW 7.2 km/h 12.2 km/h 48% 0.0 mm 88 W/m2
10:43 19.3 °C 8.0 °C 1008.7 hPa NW 6.1 km/h 13.4 km/h 48% 0.0 mm 387 W/m2
10:48 18.9 °C 7.9 °C 1008.7 hPa NNW 6.1 km/h 15.8 km/h 49% 0.0 mm 575 W/m2
10:53 18.8 °C 8.4 °C 1008.4 hPa NNW 7.2 km/h 15.8 km/h 51% 0.0 mm 265 W/m2
10:58 18.9 °C 8.6 °C 1008.4 hPa NNW 3.5 km/h 15.8 km/h 51% 0.0 mm 92 W/m2
11:15 19.7 °C 8.4 °C 1008.4 hPa NNW 11.1 km/h 12.2 km/h 48% 0.0 mm 667 W/m2
11:20 19.3 °C 8.0 °C 1008.4 hPa Calm   12.2 km/h 48% 0.0 mm 680 W/m2
11:25 19.9 °C 8.6 °C 1008.0 hPa Calm   12.2 km/h 48% 0.0 mm 707 W/m2
11:30 20.0 °C 8.7 °C 1008.0 hPa Calm   13.4 km/h 48% 0.0 mm 511 W/m2
11:35 20.5 °C 9.1 °C 1008.0 hPa NW 1.1 km/h 13.4 km/h 48% 0.0 mm 745 W/m2
11:40 20.1 °C 8.8 °C 1007.7 hPa NNW 1.1 km/h 13.4 km/h 48% 0.0 mm 755 W/m2
11:45 20.2 °C 8.6 °C 1008.0 hPa NNW 2.6 km/h 13.4 km/h 47% 0.0 mm 769 W/m2
11:50 20.2 °C 8.2 °C 1007.7 hPa NNW 2.6 km/h 14.8 km/h 46% 0.0 mm 771 W/m2
11:56 20.2 °C 7.9 °C 1007.7 hPa North 2.6 km/h 14.8 km/h 45% 0.0 mm 785 W/m2
12:01 20.6 °C 8.3 °C 1007.7 hPa Calm   14.8 km/h 45% 0.0 mm 785 W/m2
12:06 21.4 °C 8.7 °C 1007.3 hPa NE 1.1 km/h 8.7 km/h 44% 0.0 mm 800 W/m2
12:11 21.7 °C 8.9 °C 1007.3 hPa SSW 2.6 km/h 7.2 km/h 44% 0.0 mm 813 W/m2
12:16 21.7 °C 8.9 °C 1007.3 hPa Calm   7.2 km/h 44% 0.0 mm 818 W/m2
12:21 22.3 °C 8.8 °C 1007.3 hPa NNW 1.1 km/h 5.0 km/h 42% 0.0 mm 823 W/m2
12:26 21.9 °C 8.8 °C 1007.3 hPa NE 8.7 km/h 13.4 km/h 43% 0.0 mm 818 W/m2
12:31 21.4 °C 8.3 °C 1007.0 hPa Calm   13.4 km/h 43% 0.0 mm 809 W/m2
12:36 21.5 °C 8.7 °C 1007.0 hPa NE 6.1 km/h 12.2 km/h 44% 0.0 mm 812 W/m2
12:41 21.8 °C 9.7 °C 1007.0 hPa Calm   12.2 km/h 46% 0.0 mm 818 W/m2
12:47 21.9 °C 9.8 °C 1007.0 hPa South 8.7 km/h 13.4 km/h 46% 0.0 mm 815 W/m2
12:52 20.8 °C 11.2 °C 1007.0 hPa South 12.2 km/h 17.2 km/h 54% 0.0 mm 816 W/m2
12:57 20.6 °C 11.5 °C 1007.0 hPa South 6.1 km/h 17.2 km/h 56% 0.0 mm 831 W/m2
13:02 20.2 °C 10.9 °C 1007.0 hPa South 8.7 km/h 14.8 km/h 55% 0.0 mm 257 W/m2
13:07 19.6 °C 10.8 °C 1007.0 hPa South 5.0 km/h 13.4 km/h 57% 0.0 mm 773 W/m2
13:12 19.5 °C 10.5 °C 1006.7 hPa South 6.1 km/h 17.2 km/h 56% 0.0 mm 777 W/m2
13:17 20.0 °C 10.9 °C 1006.7 hPa SE 8.7 km/h 17.2 km/h 56% 0.0 mm 773 W/m2
13:22 20.0 °C 10.2 °C 1006.7 hPa SE 3.5 km/h 14.8 km/h 53% 0.0 mm 770 W/m2
13:27 20.3 °C 10.7 °C 1006.7 hPa SSE 8.7 km/h 14.8 km/h 54% 0.0 mm 766 W/m2
13:32 20.1 °C 10.8 °C 1006.7 hPa SSE 11.1 km/h 14.8 km/h 55% 0.0 mm 758 W/m2
13:37 19.8 °C 11.3 °C 1006.7 hPa SE 6.1 km/h 17.2 km/h 58% 0.0 mm 746 W/m2
13:47 19.8 °C 10.5 °C 1006.7 hPa SE 9.7 km/h 17.2 km/h 55% 0.0 mm 732 W/m2
13:52 19.5 °C 9.9 °C 1006.3 hPa SE 3.5 km/h 18.3 km/h 54% 0.0 mm 723 W/m2
13:57 19.6 °C 11.9 °C 1006.3 hPa SSE 12.2 km/h 18.3 km/h 61% 0.0 mm 712 W/m2
14:02 19.1 °C 10.4 °C 1006.3 hPa SE 6.1 km/h 20.9 km/h 57% 0.0 mm 676 W/m2
14:07 19.1 °C 10.7 °C 1006.3 hPa SE 7.2 km/h 20.9 km/h 58% 0.0 mm 631 W/m2
14:12 19.4 °C 10.7 °C 1006.3 hPa ESE 9.7 km/h 17.2 km/h 57% 0.0 mm 681 W/m2
14:17 19.5 °C 9.9 °C 1006.3 hPa SE 9.7 km/h 17.2 km/h 54% 0.0 mm 672 W/m2
14:22 19.7 °C 10.2 °C 1006.3 hPa SE 7.2 km/h 15.8 km/h 54% 0.0 mm 661 W/m2
14:27 20.1 °C 10.2 °C 1006.0 hPa SSE 5.0 km/h 15.8 km/h 53% 0.0 mm 638 W/m2
14:32 20.1 °C 10.2 °C 1006.3 hPa SSE 3.5 km/h 17.2 km/h 53% 0.0 mm 638 W/m2
14:42 20.1 °C 10.8 °C 1006.0 hPa SE 6.1 km/h 18.3 km/h 55% 0.0 mm 489 W/m2
14:47 19.9 °C 10.6 °C 1006.0 hPa SSE 9.7 km/h 18.3 km/h 55% 0.0 mm 571 W/m2
14:52 19.9 °C 9.8 °C 1006.0 hPa SSE 12.2 km/h 18.3 km/h 52% 0.0 mm 580 W/m2
14:57 20.0 °C 8.9 °C 1006.0 hPa SE 11.1 km/h 17.2 km/h 49% 0.0 mm 583 W/m2
15:02 19.9 °C 9.2 °C 1005.6 hPa ESE 3.5 km/h 17.2 km/h 50% 0.0 mm 493 W/m2
15:07 20.3 °C 8.9 °C 1006.0 hPa SE 6.1 km/h 15.8 km/h 48% 0.0 mm 395 W/m2
15:12 20.3 °C 9.8 °C 1006.0 hPa SE 12.2 km/h 15.8 km/h 51% 0.0 mm 519 W/m2
15:17 20.3 °C 9.6 °C 1006.0 hPa Calm   15.8 km/h 50% 0.0 mm 175 W/m2
15:22 20.3 °C 9.2 °C 1006.0 hPa SE 6.1 km/h 15.8 km/h 49% 0.0 mm 452 W/m2
15:27 20.5 °C 9.1 °C 1006.0 hPa SE 3.5 km/h 15.8 km/h 48% 0.0 mm 417 W/m2
15:32 20.3 °C 8.0 °C 1005.6 hPa ESE 3.5 km/h 12.2 km/h 45% 0.0 mm 171 W/m2
15:37 21.1 °C 9.1 °C 1005.6 hPa SE 5.0 km/h 12.2 km/h 46% 0.0 mm 420 W/m2
15:42 21.3 °C 9.2 °C 1005.6 hPa SE 5.0 km/h 11.1 km/h 46% 0.0 mm 255 W/m2
15:47 20.2 °C 9.2 °C 1005.6 hPa SE 6.1 km/h 11.1 km/h 49% 0.0 mm 218 W/m2
15:52 19.7 °C 9.3 °C 1005.6 hPa SE 6.1 km/h 11.1 km/h 51% 0.0 mm 250 W/m2
15:57 20.3 °C 9.2 °C 1005.6 hPa ESE 2.6 km/h 12.2 km/h 49% 0.0 mm 325 W/m2
16:02 20.5 °C 8.8 °C 1005.3 hPa East 2.6 km/h 12.2 km/h 47% 0.0 mm 141 W/m2
16:07 21.1 °C 8.7 °C 1005.3 hPa ESE 7.2 km/h 11.1 km/h 45% 0.0 mm 315 W/m2
16:12 21.2 °C 8.8 °C 1005.3 hPa ESE 7.2 km/h 11.1 km/h 45% 0.0 mm 437 W/m2
16:17 21.5 °C 8.7 °C 1005.0 hPa ESE 3.5 km/h 11.1 km/h 44% 0.0 mm 421 W/m2
16:22 21.3 °C 7.9 °C 1005.0 hPa ESE 2.6 km/h 11.1 km/h 42% 0.0 mm 416 W/m2
16:27 21.5 °C 8.1 °C 1005.3 hPa East 5.0 km/h 9.7 km/h 42% 0.0 mm 404 W/m2
16:32 21.1 °C 7.7 °C 1005.0 hPa East 2.6 km/h 9.7 km/h 42% 0.0 mm 141 W/m2
16:37 21.0 °C 7.9 °C 1005.0 hPa East 3.5 km/h 11.1 km/h 43% 0.0 mm 362 W/m2
16:42 21.1 °C 7.7 °C 1005.0 hPa SE 3.5 km/h 11.1 km/h 42% 0.0 mm 476 W/m2
16:47 21.6 °C 8.5 °C 1005.0 hPa South 2.6 km/h 8.7 km/h 43% 0.0 mm 331 W/m2
16:52 21.5 °C 8.4 °C 1005.3 hPa SSE 1.1 km/h 8.7 km/h 43% 0.0 mm 180 W/m2
16:57 20.3 °C 8.0 °C 1005.3 hPa SE 1.1 km/h 8.7 km/h 45% 0.0 mm 156 W/m2
17:02 20.0 °C 7.7 °C 1005.3 hPa SE 1.1 km/h 8.7 km/h 45% 0.0 mm 144 W/m2
17:07 19.7 °C 8.1 °C 1005.0 hPa Calm   6.1 km/h 47% 0.0 mm 166 W/m2
17:12 20.6 °C 8.6 °C 1005.3 hPa SE 2.6 km/h 6.1 km/h 46% 0.0 mm 406 W/m2
17:17 22.7 °C 8.8 °C 1005.3 hPa SE 2.6 km/h 7.2 km/h 41% 0.0 mm 377 W/m2
17:22 23.3 °C 8.6 °C 1005.0 hPa Calm   7.2 km/h 39% 0.0 mm 313 W/m2
17:27 22.7 °C 7.7 °C 1005.0 hPa Calm   8.7 km/h 38% 0.0 mm 260 W/m2
17:32 22.9 °C 8.6 °C 1005.0 hPa Calm   8.7 km/h 40% 0.0 mm 242 W/m2
17:37 22.9 °C 7.8 °C 1005.3 hPa Calm   5.0 km/h 38% 0.0 mm 228 W/m2
17:42 22.9 °C 8.6 °C 1005.3 hPa Calm   5.0 km/h 40% 0.0 mm 215 W/m2
17:47 22.6 °C 7.6 °C 1005.3 hPa Calm   6.1 km/h 38% 0.0 mm 197 W/m2
17:52 22.2 °C 7.6 °C 1005.3 hPa Calm   6.1 km/h 39% 0.0 mm 187 W/m2
17:57 21.9 °C 8.1 °C 1005.0 hPa Calm   6.1 km/h 41% 0.0 mm 50 W/m2
18:02 20.5 °C 7.8 °C 1005.3 hPa South 2.6 km/h 6.1 km/h 44% 0.0 mm 52 W/m2
18:07 19.5 °C 7.9 °C 1005.3 hPa South 1.1 km/h 6.1 km/h 47% 0.0 mm 64 W/m2
18:12 19.2 °C 8.2 °C 1005.0 hPa Calm   5.0 km/h 49% 0.0 mm 57 W/m2
18:17 19.2 °C 7.9 °C 1005.3 hPa South 1.1 km/h 3.5 km/h 48% 0.0 mm 62 W/m2
18:22 19.2 °C 7.9 °C 1005.0 hPa Calm   3.5 km/h 48% 0.0 mm 48 W/m2
18:27 18.8 °C 8.7 °C 1005.3 hPa Calm   3.5 km/h 52% 0.0 mm 45 W/m2
18:32 18.6 °C 8.8 °C 1005.6 hPa Calm   1.1 km/h 53% 0.0 mm 52 W/m2
18:37 18.7 °C 8.4 °C 1005.0 hPa Calm     51% 0.0 mm 52 W/m2
18:42 19.2 °C 8.2 °C 1005.3 hPa Calm   2.6 km/h 49% 0.0 mm 35 W/m2
18:47 19.0 °C 8.1 °C 1005.0 hPa Calm   2.6 km/h 49% 0.0 mm 31 W/m2
18:52 18.6 °C 8.3 °C 1005.3 hPa Calm   2.6 km/h 51% 0.0 mm 27 W/m2
18:57 18.2 °C 8.2 °C 1005.0 hPa Calm     52% 0.0 mm 25 W/m2
19:02 18.0 °C 8.6 °C 1005.3 hPa Calm     54% 0.0 mm 22 W/m2
19:07 17.7 °C 8.6 °C 1005.3 hPa Calm     55% 0.0 mm 19 W/m2
19:12 17.5 °C 9.2 °C 1005.3 hPa Calm     58% 0.0 mm 11 W/m2
19:17 17.1 °C 9.5 °C 1005.3 hPa Calm     61% 0.0 mm 9 W/m2
19:22 16.7 °C 9.4 °C 1005.3 hPa Calm     62% 0.0 mm 6 W/m2
19:27 16.6 °C 9.6 °C 1005.3 hPa Calm     63% 0.0 mm 4 W/m2
19:32 16.4 °C 9.6 °C 1005.6 hPa Calm     64% 0.0 mm 1 W/m2
19:37 16.2 °C 10.3 °C 1005.6 hPa Calm   1.1 km/h 68% 0.0 mm 0 W/m2
19:42 15.9 °C 10.7 °C 1005.6 hPa Calm   1.1 km/h 71% 0.0 mm 0 W/m2
19:47 15.7 °C 10.3 °C 1005.3 hPa Calm     70% 0.0 mm 0 W/m2
19:52 15.6 °C 10.2 °C 1005.3 hPa Calm     70% 0.0 mm 0 W/m2
19:57 15.6 °C 10.4 °C 1005.3 hPa Calm     71% 0.0 mm 0 W/m2
20:02 15.5 °C 10.7 °C 1005.6 hPa Calm     73% 0.0 mm 0 W/m2
20:07 15.4 °C 10.4 °C 1005.6 hPa Calm     72% 0.0 mm 0 W/m2
20:12 15.3 °C 10.5 °C 1005.6 hPa Calm     73% 0.0 mm 0 W/m2
20:17 15.2 °C 10.6 °C 1005.6 hPa Calm   3.5 km/h 74% 0.0 mm 0 W/m2
20:22 15.0 °C 10.4 °C 1005.6 hPa NW 1.1 km/h 3.5 km/h 74% 0.0 mm 0 W/m2
20:27 14.9 °C 10.7 °C 1005.6 hPa Calm   3.5 km/h 76% 0.0 mm 0 W/m2
20:32 14.8 °C 10.6 °C 1006.0 hPa Calm   3.5 km/h 76% 0.0 mm 0 W/m2
20:37 14.7 °C 10.7 °C 1005.6 hPa Calm   1.1 km/h 77% 0.0 mm 0 W/m2
20:42 14.6 °C 10.6 °C 1006.0 hPa Calm   1.1 km/h 77% 0.0 mm 0 W/m2
20:47 14.5 °C 10.7 °C 1006.0 hPa Calm     78% 0.0 mm 0 W/m2
20:52 14.5 °C 10.7 °C 1006.0 hPa Calm   1.1 km/h 78% 0.0 mm 0 W/m2
20:57 14.3 °C 10.7 °C 1006.0 hPa Calm   1.1 km/h 79% 0.0 mm 0 W/m2
21:02 14.2 °C 10.6 °C 1006.3 hPa Calm   1.1 km/h 79% 0.0 mm 0 W/m2
21:07 14.0 °C 10.6 °C 1006.3 hPa Calm   1.1 km/h 80% 0.0 mm 0 W/m2
21:12 13.9 °C 10.9 °C 1006.0 hPa Calm     82% 0.0 mm 0 W/m2
21:17 13.7 °C 10.7 °C 1006.3 hPa Calm     82% 0.0 mm 0 W/m2
21:22 13.6 °C 10.6 °C 1006.3 hPa Calm     82% 0.0 mm 0 W/m2
21:27 13.5 °C 10.7 °C 1006.3 hPa Calm     83% 0.0 mm 0 W/m2
21:32 13.4 °C 10.8 °C 1006.3 hPa Calm   1.1 km/h 84% 0.0 mm 0 W/m2
21:37 13.3 °C 10.7 °C 1006.0 hPa Calm   2.6 km/h 84% 0.0 mm 0 W/m2
21:42 13.3 °C 10.8 °C 1006.3 hPa Calm   2.6 km/h 85% 0.0 mm 0 W/m2
21:47 13.3 °C 10.8 °C 1006.3 hPa NW 2.6 km/h 3.5 km/h 85% 0.0 mm 0 W/m2
21:52 13.2 °C 10.9 °C 1006.3 hPa Calm   5.0 km/h 86% 0.0 mm 0 W/m2
21:57 13.1 °C 10.8 °C 1006.3 hPa Calm   5.0 km/h 86% 0.0 mm 0 W/m2
22:02 13.2 °C 10.7 °C 1006.3 hPa North 1.1 km/h 3.5 km/h 85% 0.0 mm 0 W/m2
22:07 13.4 °C 10.9 °C 1006.3 hPa Calm   5.0 km/h 85% 0.0 mm 0 W/m2
22:12 13.5 °C 10.8 °C 1006.0 hPa Calm   5.0 km/h 84% 0.0 mm 0 W/m2
22:17 13.7 °C 10.7 °C 1006.3 hPa North 2.6 km/h 5.0 km/h 82% 0.0 mm 0 W/m2
22:22 13.9 °C 10.5 °C 1006.3 hPa North 1.1 km/h 8.7 km/h 80% 0.0 mm 0 W/m2
22:27 14.1 °C 10.3 °C 1006.3 hPa North 3.5 km/h 8.7 km/h 78% 0.0 mm 0 W/m2
22:32 14.3 °C 10.3 °C 1006.0 hPa NNW 6.1 km/h 11.1 km/h 77% 0.0 mm 0 W/m2
22:37 14.4 °C 10.1 °C 1006.0 hPa North 8.7 km/h 13.4 km/h 75% 0.0 mm 0 W/m2
22:42 14.5 °C 9.9 °C 1006.0 hPa North 6.1 km/h 13.4 km/h 74% 0.0 mm 0 W/m2
22:47 14.5 °C 9.9 °C 1006.3 hPa North 5.0 km/h 12.2 km/h 74% 0.0 mm 0 W/m2
22:52 14.5 °C 9.9 °C 1006.3 hPa North 2.6 km/h 12.2 km/h 74% 0.0 mm 0 W/m2
22:57 14.5 °C 9.7 °C 1006.3 hPa North 6.1 km/h 12.2 km/h 73% 0.0 mm 0 W/m2
23:02 14.5 °C 9.7 °C 1006.3 hPa NNW 3.5 km/h 12.2 km/h 73% 0.0 mm 0 W/m2
23:07 14.6 °C 9.6 °C 1006.3 hPa North 9.7 km/h 12.2 km/h 72% 0.0 mm 0 W/m2
23:12 14.6 °C 9.6 °C 1006.7 hPa NNW 6.1 km/h 20.9 km/h 72% 0.0 mm 0 W/m2
23:17 14.6 °C 9.4 °C 1006.3 hPa NNW 6.1 km/h 20.9 km/h 71% 0.0 mm 0 W/m2
23:22 14.6 °C 9.4 °C 1006.3 hPa NNW 7.2 km/h 18.3 km/h 71% 0.0 mm 0 W/m2
23:27 14.6 °C 9.4 °C 1006.0 hPa NW 7.2 km/h 14.8 km/h 71% 0.0 mm 0 W/m2
23:32 14.7 °C 9.3 °C 1006.3 hPa NW 7.2 km/h 15.8 km/h 70% 0.0 mm 0 W/m2
23:37 14.7 °C 9.3 °C 1006.0 hPa NW 7.2 km/h 15.8 km/h 70% 0.0 mm 0 W/m2
23:42 14.7 °C 9.1 °C 1006.0 hPa NW 5.0 km/h 14.8 km/h 69% 0.0 mm 0 W/m2
23:47 14.7 °C 9.1 °C 1006.3 hPa NW 3.5 km/h 13.4 km/h 69% 0.0 mm 0 W/m2
23:52 14.6 °C 9.0 °C 1006.3 hPa Calm   11.1 km/h 69% 0.0 mm 0 W/m2
23:57 14.5 °C 9.1 °C 1006.3 hPa Calm   7.2 km/h 70% 0.0 mm 0 W/m2
Northern Hawkes Bay. New Zealand Historic Data
Compliments of Weather Underground - 2.25 mb